sensor_id;sensor_type;location;lat;lon;timestamp;temperature;humidity
59923;DHT22;45778;51.142;3.732;2024-01-15T00:00:08;3.00;99.90
59923;DHT22;45778;51.142;3.732;2024-01-15T00:02:34;2.80;99.90
59923;DHT22;45778;51.142;3.732;2024-01-15T00:05:00;2.80;99.90
59923;DHT22;45778;51.142;3.732;2024-01-15T00:07:25;3.00;99.90
59923;DHT22;45778;51.142;3.732;2024-01-15T00:09:51;3.30;99.90
59923;DHT22;45778;51.142;3.732;2024-01-15T00:12:17;3.40;99.90
59923;DHT22;45778;51.142;3.732;2024-01-15T00:14:42;3.50;99.90
59923;DHT22;45778;51.142;3.732;2024-01-15T00:17:08;3.60;99.90
59923;DHT22;45778;51.142;3.732;2024-01-15T00:19:33;3.50;99.90
59923;DHT22;45778;51.142;3.732;2024-01-15T00:21:59;3.70;99.90
59923;DHT22;45778;51.142;3.732;2024-01-15T00:24:25;3.60;99.90
59923;DHT22;45778;51.142;3.732;2024-01-15T00:26:50;3.80;99.90
59923;DHT22;45778;51.142;3.732;2024-01-15T00:29:16;3.70;99.90
59923;DHT22;45778;51.142;3.732;2024-01-15T00:31:42;3.70;99.90
59923;DHT22;45778;51.142;3.732;2024-01-15T00:34:07;4.00;99.90
59923;DHT22;45778;51.142;3.732;2024-01-15T00:36:33;3.90;99.90
59923;DHT22;45778;51.142;3.732;2024-01-15T00:38:59;4.00;99.90
59923;DHT22;45778;51.142;3.732;2024-01-15T00:41:24;4.00;99.90
59923;DHT22;45778;51.142;3.732;2024-01-15T00:43:50;4.00;99.90
59923;DHT22;45778;51.142;3.732;2024-01-15T00:46:16;4.00;99.90
59923;DHT22;45778;51.142;3.732;2024-01-15T00:48:41;3.80;99.90
59923;DHT22;45778;51.142;3.732;2024-01-15T00:51:07;3.90;99.90
59923;DHT22;45778;51.142;3.732;2024-01-15T00:53:33;3.70;99.90
59923;DHT22;45778;51.142;3.732;2024-01-15T00:55:58;3.70;99.90
59923;DHT22;45778;51.142;3.732;2024-01-15T00:58:25;3.70;99.90
59923;DHT22;45778;51.142;3.732;2024-01-15T01:00:50;3.70;99.90
59923;DHT22;45778;51.142;3.732;2024-01-15T01:03:16;3.50;99.90
59923;DHT22;45778;51.142;3.732;2024-01-15T01:05:42;3.30;99.90
59923;DHT22;45778;51.142;3.732;2024-01-15T01:08:08;3.10;99.90
59923;DHT22;45778;51.142;3.732;2024-01-15T01:10:34;2.90;99.90
59923;DHT22;45778;51.142;3.732;2024-01-15T01:12:59;2.80;99.90
59923;DHT22;45778;51.142;3.732;2024-01-15T01:15:25;2.70;99.90
59923;DHT22;45778;51.142;3.732;2024-01-15T01:17:51;2.80;99.90
59923;DHT22;45778;51.142;3.732;2024-01-15T01:20:16;2.90;99.90
59923;DHT22;45778;51.142;3.732;2024-01-15T01:22:42;2.80;99.90
59923;DHT22;45778;51.142;3.732;2024-01-15T01:25:08;2.80;99.90
59923;DHT22;45778;51.142;3.732;2024-01-15T01:27:35;2.70;99.90
59923;DHT22;45778;51.142;3.732;2024-01-15T01:30:01;2.80;99.90
59923;DHT22;45778;51.142;3.732;2024-01-15T01:32:26;2.70;99.90
59923;DHT22;45778;51.142;3.732;2024-01-15T01:34:52;2.70;99.90
59923;DHT22;45778;51.142;3.732;2024-01-15T01:37:18;2.70;99.90
59923;DHT22;45778;51.142;3.732;2024-01-15T01:39:44;2.70;99.90
59923;DHT22;45778;51.142;3.732;2024-01-15T01:42:10;2.80;99.90
59923;DHT22;45778;51.142;3.732;2024-01-15T01:44:36;2.80;99.90
59923;DHT22;45778;51.142;3.732;2024-01-15T01:47:02;2.80;99.90
59923;DHT22;45778;51.142;3.732;2024-01-15T01:49:28;2.70;99.90
59923;DHT22;45778;51.142;3.732;2024-01-15T01:51:57;2.80;99.90
59923;DHT22;45778;51.142;3.732;2024-01-15T01:54:25;2.80;99.90
59923;DHT22;45778;51.142;3.732;2024-01-15T01:56:52;2.70;99.90
59923;DHT22;45778;51.142;3.732;2024-01-15T01:59:18;2.80;99.90
59923;DHT22;45778;51.142;3.732;2024-01-15T02:01:44;2.70;99.90
59923;DHT22;45778;51.142;3.732;2024-01-15T02:04:11;2.70;99.90
59923;DHT22;45778;51.142;3.732;2024-01-15T02:06:37;2.60;99.90
59923;DHT22;45778;51.142;3.732;2024-01-15T02:09:03;2.80;99.90
59923;DHT22;45778;51.142;3.732;2024-01-15T02:11:31;2.70;99.90
59923;DHT22;45778;51.142;3.732;2024-01-15T02:13:57;2.70;99.90
59923;DHT22;45778;51.142;3.732;2024-01-15T02:16:22;2.50;99.90
59923;DHT22;45778;51.142;3.732;2024-01-15T02:18:48;2.60;99.90
59923;DHT22;45778;51.142;3.732;2024-01-15T02:21:14;2.50;99.90
59923;DHT22;45778;51.142;3.732;2024-01-15T02:23:40;2.50;99.90
59923;DHT22;45778;51.142;3.732;2024-01-15T02:26:05;2.40;99.90
59923;DHT22;45778;51.142;3.732;2024-01-15T02:28:32;2.60;99.90
59923;DHT22;45778;51.142;3.732;2024-01-15T02:30:58;2.50;99.90
59923;DHT22;45778;51.142;3.732;2024-01-15T02:33:24;2.50;99.90
59923;DHT22;45778;51.142;3.732;2024-01-15T02:35:50;2.50;99.90
59923;DHT22;45778;51.142;3.732;2024-01-15T02:38:16;2.50;99.90
59923;DHT22;45778;51.142;3.732;2024-01-15T02:40:43;2.60;99.90
59923;DHT22;45778;51.142;3.732;2024-01-15T02:43:08;2.80;99.90
59923;DHT22;45778;51.142;3.732;2024-01-15T02:45:34;2.60;99.90
59923;DHT22;45778;51.142;3.732;2024-01-15T02:48:00;2.90;99.90
59923;DHT22;45778;51.142;3.732;2024-01-15T02:50:26;2.70;99.90
59923;DHT22;45778;51.142;3.732;2024-01-15T02:52:51;2.80;99.90
59923;DHT22;45778;51.142;3.732;2024-01-15T02:55:17;2.60;99.90
59923;DHT22;45778;51.142;3.732;2024-01-15T02:57:43;2.60;99.90
59923;DHT22;45778;51.142;3.732;2024-01-15T03:00:09;2.60;99.90
59923;DHT22;45778;51.142;3.732;2024-01-15T03:02:38;2.70;99.90
59923;DHT22;45778;51.142;3.732;2024-01-15T03:05:10;2.70;99.90
59923;DHT22;45778;51.142;3.732;2024-01-15T03:07:36;2.70;99.90
59923;DHT22;45778;51.142;3.732;2024-01-15T03:10:05;3.00;99.90
59923;DHT22;45778;51.142;3.732;2024-01-15T03:12:31;2.60;99.90
59923;DHT22;45778;51.142;3.732;2024-01-15T03:14:58;2.60;99.90
59923;DHT22;45778;51.142;3.732;2024-01-15T03:17:24;2.60;99.90
59923;DHT22;45778;51.142;3.732;2024-01-15T03:19:50;2.90;99.90
59923;DHT22;45778;51.142;3.732;2024-01-15T03:22:18;2.70;99.90
59923;DHT22;45778;51.142;3.732;2024-01-15T03:24:47;2.60;99.90
59923;DHT22;45778;51.142;3.732;2024-01-15T03:27:13;2.60;99.90
59923;DHT22;45778;51.142;3.732;2024-01-15T03:29:40;2.50;99.90
59923;DHT22;45778;51.142;3.732;2024-01-15T03:32:07;2.70;99.90
59923;DHT22;45778;51.142;3.732;2024-01-15T03:34:33;2.60;99.90
59923;DHT22;45778;51.142;3.732;2024-01-15T03:37:00;2.70;99.90
59923;DHT22;45778;51.142;3.732;2024-01-15T03:39:26;2.90;99.90
59923;DHT22;45778;51.142;3.732;2024-01-15T03:41:51;2.60;99.90
59923;DHT22;45778;51.142;3.732;2024-01-15T03:44:17;2.80;99.90
59923;DHT22;45778;51.142;3.732;2024-01-15T03:46:42;2.50;99.90
59923;DHT22;45778;51.142;3.732;2024-01-15T03:49:08;2.50;99.90
59923;DHT22;45778;51.142;3.732;2024-01-15T03:51:34;2.40;99.90
59923;DHT22;45778;51.142;3.732;2024-01-15T03:53:59;2.60;99.90
59923;DHT22;45778;51.142;3.732;2024-01-15T03:56:25;2.50;99.90
59923;DHT22;45778;51.142;3.732;2024-01-15T03:58:51;2.50;99.90
59923;DHT22;45778;51.142;3.732;2024-01-15T04:01:16;2.50;99.90
59923;DHT22;45778;51.142;3.732;2024-01-15T04:03:42;2.40;99.90
59923;DHT22;45778;51.142;3.732;2024-01-15T04:06:08;2.30;99.90
59923;DHT22;45778;51.142;3.732;2024-01-15T04:08:33;2.50;99.90
59923;DHT22;45778;51.142;3.732;2024-01-15T04:10:59;2.20;99.90
59923;DHT22;45778;51.142;3.732;2024-01-15T04:13:25;2.10;99.90
59923;DHT22;45778;51.142;3.732;2024-01-15T04:15:51;2.20;99.90
59923;DHT22;45778;51.142;3.732;2024-01-15T04:18:16;2.00;99.90
59923;DHT22;45778;51.142;3.732;2024-01-15T04:20:43;2.00;99.90
59923;DHT22;45778;51.142;3.732;2024-01-15T04:23:09;1.90;99.90
59923;DHT22;45778;51.142;3.732;2024-01-15T04:25:34;1.90;99.90
59923;DHT22;45778;51.142;3.732;2024-01-15T04:28:00;1.80;99.90
59923;DHT22;45778;51.142;3.732;2024-01-15T04:30:26;1.70;99.90
59923;DHT22;45778;51.142;3.732;2024-01-15T04:32:52;1.60;99.90
59923;DHT22;45778;51.142;3.732;2024-01-15T04:35:17;2.00;99.90
59923;DHT22;45778;51.142;3.732;2024-01-15T04:37:44;1.50;99.90
59923;DHT22;45778;51.142;3.732;2024-01-15T04:40:12;1.70;99.90
59923;DHT22;45778;51.142;3.732;2024-01-15T04:42:38;1.60;99.90
59923;DHT22;45778;51.142;3.732;2024-01-15T04:45:04;1.60;99.90
59923;DHT22;45778;51.142;3.732;2024-01-15T04:47:30;1.60;99.90
59923;DHT22;45778;51.142;3.732;2024-01-15T04:55:06;1.40;99.90
59923;DHT22;45778;51.142;3.732;2024-01-15T04:57:32;1.40;99.90
59923;DHT22;45778;51.142;3.732;2024-01-15T04:59:58;1.40;99.90
59923;DHT22;45778;51.142;3.732;2024-01-15T05:02:23;1.30;99.90
59923;DHT22;45778;51.142;3.732;2024-01-15T05:04:49;1.30;99.90
59923;DHT22;45778;51.142;3.732;2024-01-15T05:07:14;1.20;99.90
59923;DHT22;45778;51.142;3.732;2024-01-15T05:09:40;1.20;99.90
59923;DHT22;45778;51.142;3.732;2024-01-15T05:12:06;1.20;99.90
59923;DHT22;45778;51.142;3.732;2024-01-15T05:14:32;1.20;99.90
59923;DHT22;45778;51.142;3.732;2024-01-15T05:16:58;1.20;99.90
59923;DHT22;45778;51.142;3.732;2024-01-15T05:19:23;1.20;99.90
59923;DHT22;45778;51.142;3.732;2024-01-15T05:21:49;1.50;99.90
59923;DHT22;45778;51.142;3.732;2024-01-15T05:24:14;1.20;99.90
59923;DHT22;45778;51.142;3.732;2024-01-15T05:26:40;1.20;99.90
59923;DHT22;45778;51.142;3.732;2024-01-15T05:29:06;1.10;99.90
59923;DHT22;45778;51.142;3.732;2024-01-15T05:31:31;1.10;99.90
59923;DHT22;45778;51.142;3.732;2024-01-15T05:33:57;1.00;99.90
59923;DHT22;45778;51.142;3.732;2024-01-15T05:36:22;1.00;99.90
59923;DHT22;45778;51.142;3.732;2024-01-15T05:38:48;1.10;99.90
59923;DHT22;45778;51.142;3.732;2024-01-15T05:41:18;1.20;99.90
59923;DHT22;45778;51.142;3.732;2024-01-15T05:43:49;1.00;99.90
59923;DHT22;45778;51.142;3.732;2024-01-15T05:46:15;1.00;99.90
59923;DHT22;45778;51.142;3.732;2024-01-15T05:48:41;1.00;99.90
59923;DHT22;45778;51.142;3.732;2024-01-15T05:51:07;1.30;99.90
59923;DHT22;45778;51.142;3.732;2024-01-15T05:53:32;1.40;99.90
59923;DHT22;45778;51.142;3.732;2024-01-15T05:55:58;1.10;99.90
59923;DHT22;45778;51.142;3.732;2024-01-15T05:58:23;1.00;99.90
59923;DHT22;45778;51.142;3.732;2024-01-15T06:00:49;1.00;99.90
59923;DHT22;45778;51.142;3.732;2024-01-15T06:03:15;1.40;99.90
59923;DHT22;45778;51.142;3.732;2024-01-15T06:08:17;1.10;99.90
59923;DHT22;45778;51.142;3.732;2024-01-15T06:10:42;1.20;99.90
59923;DHT22;45778;51.142;3.732;2024-01-15T06:13:08;1.20;99.90
59923;DHT22;45778;51.142;3.732;2024-01-15T06:15:34;1.20;99.90
59923;DHT22;45778;51.142;3.732;2024-01-15T06:17:59;1.40;99.90
59923;DHT22;45778;51.142;3.732;2024-01-15T06:20:25;1.60;99.90
59923;DHT22;45778;51.142;3.732;2024-01-15T06:22:50;1.80;99.90
59923;DHT22;45778;51.142;3.732;2024-01-15T06:27:51;1.80;99.90
59923;DHT22;45778;51.142;3.732;2024-01-15T06:30:17;1.80;99.90
59923;DHT22;45778;51.142;3.732;2024-01-15T06:32:43;1.90;99.90
59923;DHT22;45778;51.142;3.732;2024-01-15T06:35:08;2.00;99.90
59923;DHT22;45778;51.142;3.732;2024-01-15T06:37:35;2.10;99.90
59923;DHT22;45778;51.142;3.732;2024-01-15T06:40:01;2.30;99.90
59923;DHT22;45778;51.142;3.732;2024-01-15T06:42:27;2.40;99.90
59923;DHT22;45778;51.142;3.732;2024-01-15T06:44:52;2.50;99.90
59923;DHT22;45778;51.142;3.732;2024-01-15T06:47:18;2.70;99.90
59923;DHT22;45778;51.142;3.732;2024-01-15T06:49:47;2.60;99.90
59923;DHT22;45778;51.142;3.732;2024-01-15T06:52:17;2.40;99.90
59923;DHT22;45778;51.142;3.732;2024-01-15T06:57:18;2.50;99.90
59923;DHT22;45778;51.142;3.732;2024-01-15T06:59:45;2.50;99.90
59923;DHT22;45778;51.142;3.732;2024-01-15T07:02:11;2.40;99.90
59923;DHT22;45778;51.142;3.732;2024-01-15T07:04:37;2.50;99.90
59923;DHT22;45778;51.142;3.732;2024-01-15T07:07:06;2.40;99.90
59923;DHT22;45778;51.142;3.732;2024-01-15T07:12:02;2.30;99.90
59923;DHT22;45778;51.142;3.732;2024-01-15T07:14:28;2.20;99.90
59923;DHT22;45778;51.142;3.732;2024-01-15T07:16:56;2.20;99.90
59923;DHT22;45778;51.142;3.732;2024-01-15T07:19:23;2.10;99.90
59923;DHT22;45778;51.142;3.732;2024-01-15T07:21:48;2.40;99.90
59923;DHT22;45778;51.142;3.732;2024-01-15T07:24:14;2.00;99.90
59923;DHT22;45778;51.142;3.732;2024-01-15T07:26:39;2.00;99.90
59923;DHT22;45778;51.142;3.732;2024-01-15T07:29:08;1.90;99.90
59923;DHT22;45778;51.142;3.732;2024-01-15T07:31:38;1.90;99.90
59923;DHT22;45778;51.142;3.732;2024-01-15T07:34:03;1.80;99.90
59923;DHT22;45778;51.142;3.732;2024-01-15T07:49:17;1.60;99.90
59923;DHT22;45778;51.142;3.732;2024-01-15T07:51:43;1.60;99.90
59923;DHT22;45778;51.142;3.732;2024-01-15T07:54:09;2.50;99.90
59923;DHT22;45778;51.142;3.732;2024-01-15T07:57:02;1.50;99.90
59923;DHT22;45778;51.142;3.732;2024-01-15T07:59:32;1.50;99.90
59923;DHT22;45778;51.142;3.732;2024-01-15T08:02:07;1.50;99.90
59923;DHT22;45778;51.142;3.732;2024-01-15T08:04:33;1.50;99.90
59923;DHT22;45778;51.142;3.732;2024-01-15T08:09:34;1.60;99.90
59923;DHT22;45778;51.142;3.732;2024-01-15T08:14:35;1.80;99.90
59923;DHT22;45778;51.142;3.732;2024-01-15T08:22:11;1.70;99.90
59923;DHT22;45778;51.142;3.732;2024-01-15T08:27:12;1.60;99.90
59923;DHT22;45778;51.142;3.732;2024-01-15T08:29:38;1.70;99.90
59923;DHT22;45778;51.142;3.732;2024-01-15T08:32:04;1.80;99.90
59923;DHT22;45778;51.142;3.732;2024-01-15T08:42:16;1.90;99.90
59923;DHT22;45778;51.142;3.732;2024-01-15T08:44:41;1.90;99.90
59923;DHT22;45778;51.142;3.732;2024-01-15T08:49:44;2.00;99.90
59923;DHT22;45778;51.142;3.732;2024-01-15T08:52:10;2.20;99.90
59923;DHT22;45778;51.142;3.732;2024-01-15T08:54:36;2.20;99.90
59923;DHT22;45778;51.142;3.732;2024-01-15T08:57:02;2.70;99.90
59923;DHT22;45778;51.142;3.732;2024-01-15T08:59:28;2.20;99.90
59923;DHT22;45778;51.142;3.732;2024-01-15T09:01:56;2.30;99.90
59923;DHT22;45778;51.142;3.732;2024-01-15T09:04:23;2.30;99.90
59923;DHT22;45778;51.142;3.732;2024-01-15T09:06:49;2.50;99.90
59923;DHT22;45778;51.142;3.732;2024-01-15T09:09:14;2.50;99.90
59923;DHT22;45778;51.142;3.732;2024-01-15T09:14:15;2.50;99.90
59923;DHT22;45778;51.142;3.732;2024-01-15T09:16:41;2.50;99.90
59923;DHT22;45778;51.142;3.732;2024-01-15T09:19:09;2.50;99.90
59923;DHT22;45778;51.142;3.732;2024-01-15T09:21:34;2.60;99.90
59923;DHT22;45778;51.142;3.732;2024-01-15T09:24:00;3.10;99.90
59923;DHT22;45778;51.142;3.732;2024-01-15T09:26:26;2.80;99.90
59923;DHT22;45778;51.142;3.732;2024-01-15T09:28:52;3.10;99.90
59923;DHT22;45778;51.142;3.732;2024-01-15T09:31:17;3.20;99.90
59923;DHT22;45778;51.142;3.732;2024-01-15T09:33:45;3.40;99.90
59923;DHT22;45778;51.142;3.732;2024-01-15T09:36:10;3.50;99.90
59923;DHT22;45778;51.142;3.732;2024-01-15T09:38:36;3.50;99.90
59923;DHT22;45778;51.142;3.732;2024-01-15T09:41:02;3.60;99.90
59923;DHT22;45778;51.142;3.732;2024-01-15T09:43:27;3.30;99.90
59923;DHT22;45778;51.142;3.732;2024-01-15T09:45:53;3.40;99.90
59923;DHT22;45778;51.142;3.732;2024-01-15T09:48:19;3.30;99.90
59923;DHT22;45778;51.142;3.732;2024-01-15T09:50:45;3.30;99.90
59923;DHT22;45778;51.142;3.732;2024-01-15T09:55:47;3.30;99.90
59923;DHT22;45778;51.142;3.732;2024-01-15T09:58:18;3.40;99.90
59923;DHT22;45778;51.142;3.732;2024-01-15T10:00:47;3.40;99.90
59923;DHT22;45778;51.142;3.732;2024-01-15T10:03:15;3.40;99.90
59923;DHT22;45778;51.142;3.732;2024-01-15T10:05:42;3.80;99.90
59923;DHT22;45778;51.142;3.732;2024-01-15T10:08:09;3.50;99.90
59923;DHT22;45778;51.142;3.732;2024-01-15T10:10:36;3.60;99.90
59923;DHT22;45778;51.142;3.732;2024-01-15T10:13:04;3.60;99.90
59923;DHT22;45778;51.142;3.732;2024-01-15T10:18:07;3.60;99.90
59923;DHT22;45778;51.142;3.732;2024-01-15T10:20:33;3.70;99.90
59923;DHT22;45778;51.142;3.732;2024-01-15T10:22:59;3.90;99.90
59923;DHT22;45778;51.142;3.732;2024-01-15T10:25:25;3.90;99.90
59923;DHT22;45778;51.142;3.732;2024-01-15T10:30:24;3.80;99.90
59923;DHT22;45778;51.142;3.732;2024-01-15T10:32:58;3.80;99.90
59923;DHT22;45778;51.142;3.732;2024-01-15T10:35:29;3.80;99.90
59923;DHT22;45778;51.142;3.732;2024-01-15T10:37:55;4.20;99.90
59923;DHT22;45778;51.142;3.732;2024-01-15T10:40:21;4.00;99.90
59923;DHT22;45778;51.142;3.732;2024-01-15T10:42:47;4.00;99.90
59923;DHT22;45778;51.142;3.732;2024-01-15T10:45:14;4.00;99.90
59923;DHT22;45778;51.142;3.732;2024-01-15T10:52:50;3.80;99.90
59923;DHT22;45778;51.142;3.732;2024-01-15T10:57:53;3.90;99.90
59923;DHT22;45778;51.142;3.732;2024-01-15T11:00:19;4.10;99.90
59923;DHT22;45778;51.142;3.732;2024-01-15T11:02:46;3.90;99.90
59923;DHT22;45778;51.142;3.732;2024-01-15T11:05:15;4.00;99.90
59923;DHT22;45778;51.142;3.732;2024-01-15T11:07:42;4.00;99.90
59923;DHT22;45778;51.142;3.732;2024-01-15T11:10:38;4.00;99.90
59923;DHT22;45778;51.142;3.732;2024-01-15T11:13:09;4.10;99.90
59923;DHT22;45778;51.142;3.732;2024-01-15T11:15:58;4.20;99.90
59923;DHT22;45778;51.142;3.732;2024-01-15T11:18:27;4.20;99.90
59923;DHT22;45778;51.142;3.732;2024-01-15T11:23:51;4.20;99.90
59923;DHT22;45778;51.142;3.732;2024-01-15T11:26:36;4.20;99.90
59923;DHT22;45778;51.142;3.732;2024-01-15T11:29:07;4.40;99.90
59923;DHT22;45778;51.142;3.732;2024-01-15T11:34:09;4.40;99.90
59923;DHT22;45778;51.142;3.732;2024-01-15T11:37:04;4.40;99.90
59923;DHT22;45778;51.142;3.732;2024-01-15T11:41:57;4.60;99.90
59923;DHT22;45778;51.142;3.732;2024-01-15T11:44:23;4.80;99.90
59923;DHT22;45778;51.142;3.732;2024-01-15T11:47:04;4.90;99.90
59923;DHT22;45778;51.142;3.732;2024-01-15T11:52:17;4.80;99.90
59923;DHT22;45778;51.142;3.732;2024-01-15T11:55:11;4.60;99.90
59923;DHT22;45778;51.142;3.732;2024-01-15T11:57:46;4.60;99.90
59923;DHT22;45778;51.142;3.732;2024-01-15T12:00:14;4.60;99.90
59923;DHT22;45778;51.142;3.732;2024-01-15T12:02:45;4.50;99.90
59923;DHT22;45778;51.142;3.732;2024-01-15T12:05:12;4.30;99.90
59923;DHT22;45778;51.142;3.732;2024-01-15T12:07:42;4.40;99.90
59923;DHT22;45778;51.142;3.732;2024-01-15T12:10:11;4.50;99.90
59923;DHT22;45778;51.142;3.732;2024-01-15T12:15:29;4.30;99.90
59923;DHT22;45778;51.142;3.732;2024-01-15T12:18:04;4.50;99.90
59923;DHT22;45778;51.142;3.732;2024-01-15T12:20:31;4.40;99.90
59923;DHT22;45778;51.142;3.732;2024-01-15T12:22:57;4.30;99.90
59923;DHT22;45778;51.142;3.732;2024-01-15T12:25:24;4.40;99.90
59923;DHT22;45778;51.142;3.732;2024-01-15T12:27:51;4.50;99.90
59923;DHT22;45778;51.142;3.732;2024-01-15T12:30:16;4.70;99.90
59923;DHT22;45778;51.142;3.732;2024-01-15T12:32:42;4.60;99.90
59923;DHT22;45778;51.142;3.732;2024-01-15T12:35:10;4.70;99.90
59923;DHT22;45778;51.142;3.732;2024-01-15T12:37:37;4.60;99.90
59923;DHT22;45778;51.142;3.732;2024-01-15T12:40:04;4.60;99.90
59923;DHT22;45778;51.142;3.732;2024-01-15T12:42:32;4.40;99.90
59923;DHT22;45778;51.142;3.732;2024-01-15T12:44:58;4.60;99.90
59923;DHT22;45778;51.142;3.732;2024-01-15T12:47:24;4.40;99.90
59923;DHT22;45778;51.142;3.732;2024-01-15T12:49:52;4.60;99.90
59923;DHT22;45778;51.142;3.732;2024-01-15T12:52:20;5.20;99.90
59923;DHT22;45778;51.142;3.732;2024-01-15T12:54:51;5.50;99.90
59923;DHT22;45778;51.142;3.732;2024-01-15T12:57:17;5.40;99.90
59923;DHT22;45778;51.142;3.732;2024-01-15T12:59:44;5.40;99.90
59923;DHT22;45778;51.142;3.732;2024-01-15T13:02:11;5.00;99.90
59923;DHT22;45778;51.142;3.732;2024-01-15T13:09:47;4.10;99.90
59923;DHT22;45778;51.142;3.732;2024-01-15T13:12:17;4.00;99.90
59923;DHT22;45778;51.142;3.732;2024-01-15T13:14:43;4.00;99.90
59923;DHT22;45778;51.142;3.732;2024-01-15T13:17:08;4.30;99.90
59923;DHT22;45778;51.142;3.732;2024-01-15T13:19:34;4.30;99.90
59923;DHT22;45778;51.142;3.732;2024-01-15T13:22:00;4.10;99.90
59923;DHT22;45778;51.142;3.732;2024-01-15T13:27:01;3.50;99.90
59923;DHT22;45778;51.142;3.732;2024-01-15T13:29:27;3.30;99.90
59923;DHT22;45778;51.142;3.732;2024-01-15T13:31:57;3.30;99.90
59923;DHT22;45778;51.142;3.732;2024-01-15T13:34:23;3.80;99.90
59923;DHT22;45778;51.142;3.732;2024-01-15T13:36:49;4.70;99.90
59923;DHT22;45778;51.142;3.732;2024-01-15T13:39:15;5.40;99.90
59923;DHT22;45778;51.142;3.732;2024-01-15T13:41:46;5.20;99.90
59923;DHT22;45778;51.142;3.732;2024-01-15T13:44:11;5.10;99.90
59923;DHT22;45778;51.142;3.732;2024-01-15T13:46:37;5.40;99.90
59923;DHT22;45778;51.142;3.732;2024-01-15T13:49:06;5.30;99.90
59923;DHT22;45778;51.142;3.732;2024-01-15T13:51:32;5.00;99.90
59923;DHT22;45778;51.142;3.732;2024-01-15T13:53:58;4.80;99.90
59923;DHT22;45778;51.142;3.732;2024-01-15T13:56:27;4.60;99.90
59923;DHT22;45778;51.142;3.732;2024-01-15T13:58:56;3.90;99.90
59923;DHT22;45778;51.142;3.732;2024-01-15T14:01:23;3.10;99.90
59923;DHT22;45778;51.142;3.732;2024-01-15T14:03:49;2.80;99.90
59923;DHT22;45778;51.142;3.732;2024-01-15T14:06:15;2.60;99.90
59923;DHT22;45778;51.142;3.732;2024-01-15T14:08:40;2.20;99.90
59923;DHT22;45778;51.142;3.732;2024-01-15T14:11:06;2.30;99.90
59923;DHT22;45778;51.142;3.732;2024-01-15T14:13:33;2.20;99.90
59923;DHT22;45778;51.142;3.732;2024-01-15T14:15:59;1.90;99.90
59923;DHT22;45778;51.142;3.732;2024-01-15T14:18:26;1.80;99.90
59923;DHT22;45778;51.142;3.732;2024-01-15T14:20:52;2.00;99.90
59923;DHT22;45778;51.142;3.732;2024-01-15T14:28:29;2.30;99.90
59923;DHT22;45778;51.142;3.732;2024-01-15T14:30:55;2.50;99.90
59923;DHT22;45778;51.142;3.732;2024-01-15T14:33:23;2.70;99.90
59923;DHT22;45778;51.142;3.732;2024-01-15T14:35:49;2.80;99.90
59923;DHT22;45778;51.142;3.732;2024-01-15T14:38:14;3.60;99.90
59923;DHT22;45778;51.142;3.732;2024-01-15T14:40:40;3.40;99.90
59923;DHT22;45778;51.142;3.732;2024-01-15T14:43:06;3.40;99.90
59923;DHT22;45778;51.142;3.732;2024-01-15T14:53:19;2.40;99.90
59923;DHT22;45778;51.142;3.732;2024-01-15T14:58:20;2.40;99.90
59923;DHT22;45778;51.142;3.732;2024-01-15T15:11:07;2.20;99.90
59923;DHT22;45778;51.142;3.732;2024-01-15T15:13:33;2.30;99.90
59923;DHT22;45778;51.142;3.732;2024-01-15T15:16:00;2.40;99.90
59923;DHT22;45778;51.142;3.732;2024-01-15T15:18:26;2.40;99.90
59923;DHT22;45778;51.142;3.732;2024-01-15T15:26:02;2.30;99.90
59923;DHT22;45778;51.142;3.732;2024-01-15T15:28:28;2.20;99.90
59923;DHT22;45778;51.142;3.732;2024-01-15T15:30:54;2.10;99.90
59923;DHT22;45778;51.142;3.732;2024-01-15T15:33:20;2.00;99.90
59923;DHT22;45778;51.142;3.732;2024-01-15T15:35:45;2.10;99.90
59923;DHT22;45778;51.142;3.732;2024-01-15T15:40:46;2.20;99.90
59923;DHT22;45778;51.142;3.732;2024-01-15T15:45:47;2.30;99.90
59923;DHT22;45778;51.142;3.732;2024-01-15T15:50:50;2.30;99.90
59923;DHT22;45778;51.142;3.732;2024-01-15T15:53:18;2.40;99.90
59923;DHT22;45778;51.142;3.732;2024-01-15T15:55:44;2.60;99.90
59923;DHT22;45778;51.142;3.732;2024-01-15T15:58:10;2.60;99.90
59923;DHT22;45778;51.142;3.732;2024-01-15T16:00:36;2.70;99.90
59923;DHT22;45778;51.142;3.732;2024-01-15T16:03:01;2.60;99.90
59923;DHT22;45778;51.142;3.732;2024-01-15T16:05:27;2.50;99.90
59923;DHT22;45778;51.142;3.732;2024-01-15T16:07:53;2.40;99.90
59923;DHT22;45778;51.142;3.732;2024-01-15T16:10:18;2.00;99.90
59923;DHT22;45778;51.142;3.732;2024-01-15T16:17:55;2.00;99.90
59923;DHT22;45778;51.142;3.732;2024-01-15T16:20:21;2.00;99.90
59923;DHT22;45778;51.142;3.732;2024-01-15T16:22:47;2.10;99.90
59923;DHT22;45778;51.142;3.732;2024-01-15T16:25:13;2.00;99.90
59923;DHT22;45778;51.142;3.732;2024-01-15T16:27:38;2.00;99.90
59923;DHT22;45778;51.142;3.732;2024-01-15T16:30:08;2.00;99.90
59923;DHT22;45778;51.142;3.732;2024-01-15T16:32:34;2.10;99.90
59923;DHT22;45778;51.142;3.732;2024-01-15T16:35:00;2.20;99.90
59923;DHT22;45778;51.142;3.732;2024-01-15T16:37:27;2.10;99.90
59923;DHT22;45778;51.142;3.732;2024-01-15T16:39:52;2.20;99.90
59923;DHT22;45778;51.142;3.732;2024-01-15T16:42:18;2.10;99.90
59923;DHT22;45778;51.142;3.732;2024-01-15T16:44:44;2.40;99.90
59923;DHT22;45778;51.142;3.732;2024-01-15T16:47:09;2.00;99.90
59923;DHT22;45778;51.142;3.732;2024-01-15T16:49:35;2.10;99.90
59923;DHT22;45778;51.142;3.732;2024-01-15T16:52:01;2.10;99.90
59923;DHT22;45778;51.142;3.732;2024-01-15T16:54:27;2.10;99.90
59923;DHT22;45778;51.142;3.732;2024-01-15T16:56:53;2.40;99.90
59923;DHT22;45778;51.142;3.732;2024-01-15T16:59:18;2.30;99.90
59923;DHT22;45778;51.142;3.732;2024-01-15T17:01:44;2.30;99.90
59923;DHT22;45778;51.142;3.732;2024-01-15T17:04:10;2.40;99.90
59923;DHT22;45778;51.142;3.732;2024-01-15T17:06:35;2.40;99.90
59923;DHT22;45778;51.142;3.732;2024-01-15T17:09:01;2.40;99.90
59923;DHT22;45778;51.142;3.732;2024-01-15T17:11:27;2.40;99.90
59923;DHT22;45778;51.142;3.732;2024-01-15T17:13:53;2.20;99.90
59923;DHT22;45778;51.142;3.732;2024-01-15T17:16:19;2.10;99.90
59923;DHT22;45778;51.142;3.732;2024-01-15T17:18:45;2.10;99.90
59923;DHT22;45778;51.142;3.732;2024-01-15T17:21:11;2.20;99.90
59923;DHT22;45778;51.142;3.732;2024-01-15T17:23:37;2.40;99.90
59923;DHT22;45778;51.142;3.732;2024-01-15T17:26:03;2.50;99.90
59923;DHT22;45778;51.142;3.732;2024-01-15T17:28:28;2.50;99.90
59923;DHT22;45778;51.142;3.732;2024-01-15T17:30:54;2.40;99.90
59923;DHT22;45778;51.142;3.732;2024-01-15T17:33:20;2.50;99.90
59923;DHT22;45778;51.142;3.732;2024-01-15T17:38:21;2.70;99.90
59923;DHT22;45778;51.142;3.732;2024-01-15T17:40:47;2.70;99.90
59923;DHT22;45778;51.142;3.732;2024-01-15T17:43:13;2.90;99.90
59923;DHT22;45778;51.142;3.732;2024-01-15T17:45:38;2.80;99.90
59923;DHT22;45778;51.142;3.732;2024-01-15T17:48:05;2.80;99.90
59923;DHT22;45778;51.142;3.732;2024-01-15T17:50:31;2.80;99.90
59923;DHT22;45778;51.142;3.732;2024-01-15T17:52:58;2.80;99.90
59923;DHT22;45778;51.142;3.732;2024-01-15T17:55:26;2.70;99.90
59923;DHT22;45778;51.142;3.732;2024-01-15T17:57:51;2.60;99.90